createdAt,value
2018-04-12T00:00:01.244Z,4.9
2018-04-12T00:05:01.721Z,4.8
2018-04-12T00:10:01.623Z,4.8
2018-04-12T00:15:02.429Z,4.8
2018-04-12T00:20:01.263Z,4.8
2018-04-12T00:25:01.407Z,4.9
2018-04-12T00:30:01.547Z,4.8
2018-04-12T00:35:02.279Z,4.9
2018-04-12T00:40:01.679Z,4.8
2018-04-12T00:45:01.764Z,4.9
2018-04-12T00:50:01.642Z,4.8
2018-04-12T00:55:01.743Z,4.8
2018-04-12T01:00:01.684Z,4.9
2018-04-12T01:05:02.177Z,4.9
2018-04-12T01:10:02.484Z,4.8
2018-04-12T01:15:01.623Z,4.8
2018-04-12T01:20:01.484Z,4.8
2018-04-12T01:25:01.885Z,4.8
2018-04-12T01:30:02.374Z,4.8
2018-04-12T01:35:01.269Z,4.8
2018-04-12T01:40:01.195Z,4.8
2018-04-12T01:45:01.650Z,4.9
2018-04-12T01:50:01.898Z,4.9
2018-04-12T01:55:02.107Z,4.8
2018-04-12T02:00:01.337Z,4.9
2018-04-12T02:05:02.369Z,4.8
2018-04-12T02:10:01.391Z,4.8
2018-04-12T02:15:01.211Z,4.8
2018-04-12T02:20:01.382Z,4.8
2018-04-12T02:25:02.226Z,4.8
2018-04-12T02:30:01.456Z,4.8
2018-04-12T02:35:01.741Z,4.8
2018-04-12T02:40:01.829Z,4.7
2018-04-12T02:45:02.230Z,4.7
2018-04-12T02:50:01.649Z,4.8
2018-04-12T02:55:01.212Z,4.7
2018-04-12T03:00:01.937Z,4.7
2018-04-12T03:05:02.167Z,4.8
2018-04-12T03:10:01.990Z,4.8
2018-04-12T03:15:01.162Z,4.7
2018-04-12T03:20:02.593Z,4.8
2018-04-12T03:25:01.745Z,4.8
2018-04-12T03:30:01.244Z,4.8
2018-04-12T03:35:01.419Z,4.7
2018-04-12T03:40:02.076Z,4.7
2018-04-12T03:45:01.412Z,4.7
2018-04-12T03:50:01.583Z,4.7
2018-04-12T03:55:02.010Z,4.7
2018-04-12T04:00:01.419Z,4.7
2018-04-12T04:05:01.647Z,4.7
2018-04-12T04:10:02.024Z,4.7
2018-04-12T04:15:01.437Z,4.7
2018-04-12T04:20:01.585Z,4.7
2018-04-12T04:25:01.923Z,4.8
2018-04-12T04:30:02.155Z,4.8
2018-04-12T04:35:01.806Z,4.9
2018-04-12T04:40:01.601Z,4.9
2018-04-12T04:45:02.127Z,5
2018-04-12T04:50:01.252Z,5
2018-04-12T04:55:02.467Z,5
2018-04-12T05:00:01.176Z,5.1
2018-04-12T05:05:01.271Z,5.2
2018-04-12T05:10:01.561Z,5.2
2018-04-12T05:15:01.865Z,5.2
2018-04-12T05:20:01.335Z,5.4
2018-04-12T05:25:01.293Z,5.4
2018-04-12T05:30:01.932Z,5.5
2018-04-12T05:35:01.190Z,5.7
2018-04-12T05:40:01.744Z,5.8
2018-04-12T05:45:01.738Z,5.9
2018-04-12T05:50:01.769Z,6
2018-04-12T05:55:01.948Z,6
2018-04-12T06:00:02.068Z,6
2018-04-12T06:05:01.851Z,6.1
2018-04-12T06:10:01.648Z,6.2
2018-04-12T06:15:02.117Z,6.4
2018-04-12T06:20:01.250Z,6.4
2018-04-12T06:25:01.858Z,6.6
2018-04-12T06:30:01.516Z,6.7
2018-04-12T06:35:02.133Z,6.8
2018-04-12T06:40:01.935Z,7
2018-04-12T06:45:01.984Z,7.3
2018-04-12T06:50:01.489Z,7.4
2018-04-12T06:55:02.303Z,7.6
2018-04-12T07:00:01.763Z,7.8
2018-04-12T07:05:01.577Z,7.9
2018-04-12T07:10:01.268Z,8.1
2018-04-12T07:15:02.099Z,8.2
2018-04-12T07:20:02.167Z,8.5
2018-04-12T07:25:02.186Z,8.5
2018-04-12T07:30:01.805Z,8.7
2018-04-12T07:35:02.038Z,8.8
2018-04-12T07:40:01.234Z,8.9
2018-04-12T07:45:01.941Z,9
2018-04-12T07:50:01.762Z,9.1
2018-04-12T07:55:01.833Z,9.3
2018-04-12T08:00:01.588Z,9.4
2018-04-12T08:05:02.032Z,9.6
2018-04-12T08:10:01.850Z,9.5
2018-04-12T08:15:02.171Z,9.7
2018-04-12T08:20:02.014Z,9.9
2018-04-12T08:25:01.868Z,10.1
2018-04-12T08:30:01.357Z,10.2
2018-04-12T08:35:01.242Z,10.4
2018-04-12T08:40:02.620Z,10.6
2018-04-12T08:45:02.025Z,10.8
2018-04-12T08:50:01.763Z,10.9
2018-04-12T08:55:01.659Z,10.9
2018-04-12T09:00:02.275Z,11
2018-04-12T09:05:01.734Z,11.2
2018-04-12T09:10:01.726Z,11.2
2018-04-12T09:15:01.263Z,11.3
2018-04-12T09:20:02.286Z,11.4
2018-04-12T09:25:01.390Z,11.8
2018-04-12T09:30:01.890Z,11.9
2018-04-12T09:35:01.552Z,12.1
2018-04-12T09:40:02.023Z,12.1
2018-04-12T09:45:02.045Z,12.2
2018-04-12T09:50:02.204Z,12.5
2018-04-12T09:55:01.276Z,12.5
2018-04-12T10:00:02.149Z,12.5
2018-04-12T10:05:01.221Z,12.5
2018-04-12T10:10:01.417Z,12.9
2018-04-12T10:15:01.207Z,13.3
2018-04-12T10:20:02.171Z,13.3
2018-04-12T10:25:01.196Z,13.4
2018-04-12T10:30:01.902Z,13.6
2018-04-12T10:35:01.774Z,13.5
2018-04-12T10:40:01.924Z,13.6
2018-04-12T10:45:02.107Z,13.5
2018-04-12T10:50:01.879Z,13.9
2018-04-12T10:55:02.075Z,13.9
2018-04-12T11:00:01.610Z,14.1
2018-04-12T11:05:01.647Z,14.1
2018-04-12T11:10:02.066Z,14
2018-04-12T11:15:01.607Z,13.9
2018-04-12T11:20:01.473Z,13.2
2018-04-12T11:25:01.962Z,13
2018-04-12T11:30:01.702Z,12.8
2018-04-12T11:35:01.722Z,12.4
2018-04-12T11:40:01.739Z,12.3
2018-04-12T11:45:01.897Z,12.2
2018-04-12T11:50:01.355Z,12
2018-04-12T11:55:02.004Z,12
2018-04-12T12:00:01.607Z,11.8
2018-04-12T12:05:01.575Z,12
2018-04-12T12:10:02.302Z,12
2018-04-12T12:15:01.463Z,12.4
2018-04-12T12:20:02.207Z,12.3
2018-04-12T12:25:01.901Z,11.7
2018-04-12T12:30:02.160Z,11.6
2018-04-12T12:35:01.277Z,11.4
2018-04-12T12:40:01.629Z,11.8
2018-04-12T12:45:01.889Z,11.9
2018-04-12T12:50:02.655Z,11.9
2018-04-12T12:55:01.914Z,11.7
2018-04-12T13:00:01.841Z,11.4
2018-04-12T13:05:01.324Z,11.3
2018-04-12T13:10:02.489Z,11.2
2018-04-12T13:15:01.228Z,11.1
2018-04-12T13:20:01.907Z,11
2018-04-12T13:25:01.817Z,11.3
2018-04-12T13:30:02.036Z,11.3
2018-04-12T13:35:02.063Z,11.4
2018-04-12T13:40:02.245Z,11.1
2018-04-12T13:45:01.458Z,11.1
2018-04-12T13:50:02.538Z,11
2018-04-12T13:55:01.498Z,10.7
2018-04-12T14:00:02.192Z,10.7
2018-04-12T14:05:02.046Z,10.7
2018-04-12T14:10:01.175Z,10.7
2018-04-12T14:15:01.287Z,10.9
2018-04-12T14:20:02.032Z,10.9
2018-04-12T14:25:02.174Z,11.1
2018-04-12T14:30:01.939Z,11.1
2018-04-12T14:35:01.681Z,11.1
2018-04-12T14:40:01.981Z,10.9
2018-04-12T14:45:01.754Z,10.9
2018-04-12T14:50:01.692Z,11
2018-04-12T14:55:01.685Z,11.1
2018-04-12T15:00:02.466Z,11.2
2018-04-12T15:05:01.736Z,11.5
2018-04-12T15:10:01.767Z,11.5
2018-04-12T15:15:01.576Z,11.3
2018-04-12T15:20:02.166Z,11.1
2018-04-12T15:25:01.416Z,11.1
2018-04-12T15:30:01.606Z,10.9
2018-04-12T15:35:02.475Z,10.8
2018-04-12T15:40:01.151Z,10.7
2018-04-12T15:45:01.486Z,10.4
2018-04-12T15:50:01.377Z,10.5
2018-04-12T15:55:01.930Z,10.3
2018-04-12T16:00:01.826Z,10.2
2018-04-12T16:05:01.483Z,9.9
2018-04-12T16:10:01.936Z,9.9
2018-04-12T16:15:01.811Z,9.9
2018-04-12T16:20:01.274Z,9.6
2018-04-12T16:25:01.947Z,9.4
2018-04-12T16:30:01.224Z,9.3
2018-04-12T16:35:01.703Z,9.2
2018-04-12T16:40:02.231Z,9.2
2018-04-12T16:45:01.512Z,9.2
2018-04-12T16:50:01.779Z,9.2
2018-04-12T16:55:01.827Z,9
2018-04-12T17:00:01.917Z,9
2018-04-12T17:05:01.601Z,8.9
2018-04-12T17:10:01.335Z,8.8
2018-04-12T17:15:02.456Z,8.7
2018-04-12T17:20:01.380Z,8.6
2018-04-12T17:25:01.728Z,8.5
2018-04-12T17:30:01.346Z,8.5
2018-04-12T17:35:02.636Z,8.4
2018-04-12T17:40:01.494Z,8.3
2018-04-12T17:45:01.572Z,8.1
2018-04-12T17:50:02.698Z,8.1
2018-04-12T17:55:02.098Z,7.9
2018-04-12T18:00:01.365Z,7.9
2018-04-12T18:05:01.959Z,7.9
2018-04-12T18:10:02.594Z,7.8
2018-04-12T18:15:01.421Z,7.7
2018-04-12T18:20:02.424Z,7.6
2018-04-12T18:25:01.694Z,7.6
2018-04-12T18:30:02.351Z,7.5
2018-04-12T18:35:01.819Z,7.5
2018-04-12T18:40:01.265Z,7.5
2018-04-12T18:45:01.931Z,7.5
2018-04-12T18:50:02.540Z,7.5
2018-04-12T18:55:01.716Z,7.5
2018-04-12T19:00:01.277Z,7.5
2018-04-12T19:05:01.795Z,7.4
2018-04-12T19:10:02.233Z,7.4
2018-04-12T19:15:02.009Z,7.4
2018-04-12T19:20:01.677Z,7.4
2018-04-12T19:25:01.577Z,7.3
2018-04-12T19:30:02.325Z,7.3
2018-04-12T19:40:02.111Z,7.3
2018-04-12T19:45:02.113Z,7.4
2018-04-12T19:50:01.909Z,7.4
2018-04-12T19:55:01.990Z,7.5
2018-04-12T20:00:01.692Z,7.5
2018-04-12T20:05:01.823Z,7.5
2018-04-12T20:10:02.057Z,7.5
2018-04-12T20:15:01.852Z,7.4
2018-04-12T20:20:01.674Z,7.5
2018-04-12T20:25:01.650Z,7.5
2018-04-12T20:30:02.452Z,7.5
2018-04-12T20:35:01.753Z,7.5
2018-04-12T20:40:01.765Z,7.5
2018-04-12T20:45:01.499Z,7.5
2018-04-12T20:50:01.327Z,7.6
2018-04-12T20:55:02.603Z,7.6
2018-04-12T21:00:01.450Z,7.6
2018-04-12T21:05:01.641Z,7.6
2018-04-12T21:10:01.505Z,7.6
2018-04-12T21:15:02.535Z,7.6
2018-04-12T21:20:01.323Z,7.6
2018-04-12T21:25:01.734Z,7.7
2018-04-12T21:30:02.066Z,7.6
2018-04-12T21:35:02.422Z,7.6
2018-04-12T21:40:01.912Z,7.6
2018-04-12T21:45:01.242Z,7.6
2018-04-12T21:50:02.023Z,7.7
2018-04-12T21:55:01.600Z,7.6
2018-04-12T22:00:01.679Z,7.6
2018-04-12T22:05:02.010Z,7.6
2018-04-12T22:10:01.758Z,7.7
2018-04-12T22:15:01.962Z,7.7
2018-04-12T22:20:01.447Z,7.7
2018-04-12T22:25:02.136Z,7.7
2018-04-12T22:30:01.422Z,7.7
2018-04-12T22:35:01.321Z,7.7
2018-04-12T22:40:02.783Z,7.7
2018-04-12T22:45:01.775Z,7.7
2018-04-12T22:50:01.924Z,7.8
2018-04-12T22:55:01.994Z,7.8
2018-04-12T23:00:02.418Z,7.8
2018-04-12T23:05:01.605Z,7.9
2018-04-12T23:10:02.054Z,7.9
2018-04-12T23:15:01.392Z,8
2018-04-12T23:20:02.140Z,8
2018-04-12T23:25:02.111Z,8
2018-04-12T23:30:02.124Z,8
2018-04-12T23:35:01.822Z,8
2018-04-12T23:40:02.195Z,8
2018-04-12T23:45:01.417Z,8
2018-04-12T23:50:01.473Z,8
2018-04-12T23:55:01.467Z,8
